createdAt,value
2022-08-05T00:00:18.576Z,7.23
2022-08-05T00:02:50.458Z,6.73
2022-08-05T00:05:27.145Z,7.40
2022-08-05T00:08:34.210Z,6.70
2022-08-05T00:11:00.512Z,8.27
2022-08-05T00:13:38.864Z,6.90
2022-08-05T00:16:12.613Z,6.63
2022-08-05T00:18:42.551Z,6.33
2022-08-05T00:21:14.307Z,5.37
2022-08-05T00:23:46.807Z,5.60
2022-08-05T00:26:22.573Z,6.03
2022-08-05T00:28:51.655Z,6.53
2022-08-05T00:31:41.321Z,5.70
2022-08-05T00:34:54.358Z,4.90
2022-08-05T00:37:20.097Z,6.30
2022-08-05T00:39:58.625Z,6.53
2022-08-05T00:42:34.771Z,6.87
2022-08-05T00:45:02.929Z,7.20
2022-08-05T00:47:56.985Z,5.20
2022-08-05T00:50:21.757Z,4.27
2022-08-05T00:52:55.252Z,6.73
2022-08-05T00:55:34.229Z,5.00
2022-08-05T00:58:11.705Z,4.60
2022-08-05T01:00:42.191Z,5.77
2022-08-05T01:03:12.611Z,5.50
2022-08-05T01:05:51.558Z,5.63
2022-08-05T01:08:42.202Z,5.90
2022-08-05T01:11:14.425Z,5.77
2022-08-05T01:14:04.028Z,4.27
2022-08-05T01:16:44.465Z,6.63
2022-08-05T01:19:56.288Z,4.90
2022-08-05T01:22:37.292Z,5.10
2022-08-05T01:25:40.028Z,3.40
2022-08-05T01:28:18.346Z,5.00
2022-08-05T01:30:55.458Z,4.70
2022-08-05T01:33:29.534Z,2.57
2022-08-05T01:36:13.022Z,3.97
2022-08-05T01:38:48.604Z,5.73
2022-08-05T01:41:22.496Z,4.80
2022-08-05T01:43:55.777Z,8.97
2022-08-05T01:46:43.012Z,2.53
2022-08-05T01:49:24.324Z,4.53
2022-08-05T01:51:58.309Z,3.37
2022-08-05T01:54:31.113Z,3.63
2022-08-05T01:58:09.562Z,6.47
2022-08-05T01:59:52.586Z,4.37
2022-08-05T02:02:28.465Z,4.53
2022-08-05T02:05:00.941Z,5.07
2022-08-05T02:07:33.755Z,5.60
2022-08-05T02:10:03.392Z,4.03
2022-08-05T02:12:44.102Z,3.47
2022-08-05T02:15:25.290Z,8.80
2022-08-05T02:18:32.645Z,7.53
2022-08-05T02:20:58.684Z,6.10
2022-08-05T02:23:33.928Z,3.37
2022-08-05T02:26:07.590Z,6.13
2022-08-05T02:28:45.710Z,4.07
2022-08-05T02:31:20.964Z,5.03
2022-08-05T02:33:57.833Z,6.37
2022-08-05T02:36:31.110Z,5.33
2022-08-05T02:39:01.440Z,4.73
2022-08-05T02:41:43.019Z,5.77
2022-08-05T02:44:20.769Z,6.93
2022-08-05T02:46:58.934Z,4.73
2022-08-05T02:49:36.059Z,4.57
2022-08-05T02:52:09.109Z,5.37
2022-08-05T02:54:42.204Z,4.70
2022-08-05T02:58:10.937Z,5.70
2022-08-05T03:00:03.355Z,5.43
2022-08-05T03:02:37.988Z,6.17
2022-08-05T03:05:09.389Z,8.77
2022-08-05T03:08:00.272Z,4.47
2022-08-05T03:10:28.899Z,4.40
2022-08-05T03:15:24.579Z,6.30
2022-08-05T03:17:57.916Z,6.03
2022-08-05T03:20:27.702Z,6.00
2022-08-05T03:22:57.590Z,4.40
2022-08-05T03:25:32.442Z,5.83
2022-08-05T03:28:03.730Z,6.77
2022-08-05T03:30:33.826Z,5.70
2022-08-05T03:33:06.327Z,4.67
2022-08-05T03:35:40.723Z,6.10
2022-08-05T03:38:12.526Z,5.87
2022-08-05T03:40:45.114Z,5.83
2022-08-05T03:44:09.979Z,6.83
2022-08-05T03:46:05.261Z,6.83
2022-08-05T03:48:37.830Z,6.53
2022-08-05T03:52:35.041Z,5.77
2022-08-05T03:55:53.093Z,6.27
2022-08-05T03:57:00.074Z,5.90
2022-08-05T03:59:47.286Z,5.83
2022-08-05T04:02:38.711Z,5.53
2022-08-05T04:05:10.345Z,5.07
2022-08-05T04:07:58.343Z,5.50
2022-08-05T04:10:32.048Z,7.40
2022-08-05T04:13:03.445Z,6.67
2022-08-05T04:15:32.901Z,5.67
2022-08-05T04:18:06.669Z,7.37
2022-08-05T04:20:36.997Z,5.67
2022-08-05T04:23:05.563Z,7.20
2022-08-05T04:25:49.425Z,6.20
2022-08-05T04:28:28.563Z,7.10
2022-08-05T04:31:00.957Z,6.50
2022-08-05T04:34:17.954Z,9.13
2022-08-05T04:36:44.940Z,6.30
2022-08-05T04:39:07.885Z,8.37
2022-08-05T04:41:36.694Z,7.10
2022-08-05T04:44:09.415Z,6.13
2022-08-05T04:46:38.666Z,7.80
2022-08-05T04:49:12.230Z,8.47
2022-08-05T04:51:44.959Z,7.27
2022-08-05T04:54:14.628Z,6.60
2022-08-05T04:56:43.509Z,7.77
2022-08-05T04:59:23.963Z,8.40
2022-08-05T05:02:35.473Z,7.63
2022-08-05T05:04:47.661Z,7.77
2022-08-05T05:07:29.293Z,7.60
2022-08-05T05:09:57.866Z,7.53
2022-08-05T05:12:27.319Z,5.70
2022-08-05T05:14:55.943Z,7.30
2022-08-05T05:17:55.738Z,8.87
2022-08-05T05:20:13.830Z,7.10
2022-08-05T05:22:44.151Z,5.87
2022-08-05T05:25:16.494Z,6.67
2022-08-05T05:27:48.606Z,6.70
2022-08-05T05:30:29.565Z,6.33
2022-08-05T05:33:03.872Z,8.17
2022-08-05T05:35:45.101Z,8.53
2022-08-05T05:38:14.973Z,7.93
2022-08-05T05:40:51.945Z,7.07
2022-08-05T05:43:27.614Z,7.03
2022-08-05T05:46:15.706Z,7.73
2022-08-05T05:48:44.831Z,7.73
2022-08-05T05:51:22.386Z,6.67
2022-08-05T05:53:57.902Z,6.13
2022-08-05T05:56:32.240Z,8.17
2022-08-05T05:59:05.629Z,8.33
2022-08-05T06:01:37.011Z,6.17
2022-08-05T06:04:07.553Z,7.53
2022-08-05T06:06:36.359Z,7.27
2022-08-05T06:09:07.567Z,7.67
2022-08-05T06:11:39.266Z,6.77
2022-08-05T06:14:07.757Z,7.63
2022-08-05T06:16:37.125Z,7.03
2022-08-05T06:19:07.369Z,7.87
2022-08-05T06:21:38.735Z,6.47
2022-08-05T06:24:12.693Z,6.33
2022-08-05T06:26:51.100Z,7.13
2022-08-05T06:29:42.838Z,8.57
2022-08-05T06:32:20.912Z,7.03
2022-08-05T06:34:56.826Z,4.60
2022-08-05T06:37:56.082Z,5.60
2022-08-05T06:40:20.554Z,5.90
2022-08-05T06:42:52.320Z,7.13
2022-08-05T06:45:44.580Z,5.33
2022-08-05T06:48:44.120Z,5.17
2022-08-05T06:51:00.056Z,6.30
2022-08-05T06:53:29.328Z,5.80
2022-08-05T06:56:00.301Z,6.87
2022-08-05T06:58:36.535Z,4.33
2022-08-05T07:01:07.044Z,5.30
2022-08-05T07:03:36.334Z,4.60
2022-08-05T07:06:05.894Z,3.10
2022-08-05T07:08:47.783Z,4.13
2022-08-05T07:11:22.293Z,5.40
2022-08-05T07:14:20.055Z,4.37
2022-08-05T07:18:00.755Z,3.77
2022-08-05T07:20:34.040Z,5.17
2022-08-05T07:22:38.587Z,8.33
2022-08-05T07:25:22.182Z,5.20
2022-08-05T07:27:57.687Z,4.90
2022-08-05T07:30:33.434Z,5.30
2022-08-05T07:33:05.062Z,6.23
2022-08-05T07:36:01.558Z,7.50
2022-08-05T07:38:32.993Z,3.37
2022-08-05T07:41:34.958Z,4.20
2022-08-05T07:43:56.288Z,4.13
2022-08-05T07:46:26.359Z,3.60
2022-08-05T07:49:02.943Z,3.03
2022-08-05T07:51:40.778Z,5.40
2022-08-05T07:54:18.705Z,6.17
2022-08-05T07:57:13.594Z,5.10
2022-08-05T07:59:39.983Z,6.17
2022-08-05T08:02:16.104Z,4.63
2022-08-05T08:04:48.287Z,5.57
2022-08-05T08:07:22.190Z,3.87
2022-08-05T08:09:52.490Z,5.20
2022-08-05T08:12:37.490Z,3.13
2022-08-05T08:15:15.115Z,3.27
2022-08-05T08:17:50.660Z,7.00
2022-08-05T08:20:59.833Z,7.07
2022-08-05T08:23:59.839Z,5.50
2022-08-05T08:26:02.823Z,3.93
2022-08-05T08:28:36.468Z,7.10
2022-08-05T08:31:16.412Z,4.10
2022-08-05T08:33:46.068Z,4.77
2022-08-05T08:36:38.990Z,4.20
2022-08-05T08:39:15.397Z,4.70
2022-08-05T08:41:51.011Z,7.90
2022-08-05T08:45:25.060Z,5.00
2022-08-05T08:48:05.974Z,3.97
2022-08-05T08:50:31.981Z,4.57
2022-08-05T08:53:08.092Z,5.37
2022-08-05T08:56:02.849Z,4.47
2022-08-05T08:58:36.940Z,5.03
2022-08-05T09:01:16.345Z,3.40
2022-08-05T09:03:47.807Z,3.93
2022-08-05T09:06:21.121Z,3.80
2022-08-05T09:08:52.322Z,5.40
2022-08-05T09:11:52.076Z,4.03
2022-08-05T09:14:54.080Z,4.30
2022-08-05T09:16:57.803Z,4.83
2022-08-05T09:19:36.430Z,5.13
2022-08-05T09:22:31.240Z,3.33
2022-08-05T09:25:01.266Z,3.00
2022-08-05T09:28:04.600Z,4.10
2022-08-05T09:30:23.835Z,2.87
2022-08-05T09:32:53.472Z,2.30
2022-08-05T09:35:27.320Z,3.33
2022-08-05T09:38:16.366Z,5.03
2022-08-05T09:40:52.345Z,4.67
2022-08-05T09:43:41.633Z,2.70
2022-08-05T09:46:27.873Z,3.87
2022-08-05T09:49:08.283Z,3.67
2022-08-05T09:51:48.819Z,4.43
2022-08-05T09:54:21.442Z,5.23
2022-08-05T09:57:01.463Z,4.40
2022-08-05T09:59:36.924Z,5.57
2022-08-05T10:02:06.315Z,5.27
2022-08-05T10:04:40.993Z,3.63
2022-08-05T10:07:20.082Z,4.47
2022-08-05T10:10:04.192Z,4.80
2022-08-05T10:12:49.255Z,3.40
2022-08-05T10:15:26.603Z,3.90
2022-08-05T10:18:12.901Z,2.87
2022-08-05T10:20:47.922Z,6.27
2022-08-05T10:23:34.495Z,4.97
2022-08-05T10:26:13.834Z,4.43
2022-08-05T10:28:43.544Z,5.53
2022-08-05T10:32:53.917Z,2.60
2022-08-05T10:34:03.350Z,3.57
2022-08-05T10:36:32.172Z,4.60
2022-08-05T10:39:11.580Z,3.47
2022-08-05T10:41:51.780Z,5.50
2022-08-05T10:44:23.274Z,3.73
2022-08-05T10:46:54.201Z,3.53
2022-08-05T10:49:27.018Z,5.33
2022-08-05T10:52:04.999Z,3.40
2022-08-05T10:55:04.475Z,5.27
2022-08-05T10:57:34.202Z,4.43
2022-08-05T11:00:19.780Z,3.63
2022-08-05T11:03:24.341Z,4.07
2022-08-05T11:06:06.328Z,4.03
2022-08-05T11:08:39.379Z,4.33
2022-08-05T11:11:44.533Z,3.87
2022-08-05T11:14:57.660Z,4.57
2022-08-05T11:17:58.122Z,3.10
2022-08-05T11:20:39.116Z,3.63
2022-08-05T11:24:05.500Z,4.73
2022-08-05T11:26:28.626Z,2.83
2022-08-05T11:29:11.552Z,2.90
2022-08-05T11:31:57.072Z,2.90
2022-08-05T11:34:39.978Z,3.53
2022-08-05T11:38:30.567Z,4.67
2022-08-05T11:41:01.374Z,3.80
2022-08-05T11:44:06.693Z,3.63
2022-08-05T11:46:37.718Z,3.57
2022-08-05T11:49:10.035Z,4.73
2022-08-05T11:51:44.207Z,4.83
2022-08-05T11:54:34.020Z,3.27
2022-08-05T11:57:08.047Z,6.00
2022-08-05T11:59:50.319Z,4.60
2022-08-05T12:02:30.235Z,5.27
2022-08-05T12:05:00.892Z,4.47
2022-08-05T12:08:03.249Z,3.40
2022-08-05T12:10:38.611Z,3.03
2022-08-05T12:13:16.389Z,2.20
2022-08-05T12:15:49.744Z,3.13
2022-08-05T12:18:33.069Z,4.33
2022-08-05T12:21:11.502Z,4.37
2022-08-05T12:23:42.876Z,4.90
2022-08-05T12:26:11.627Z,3.83
2022-08-05T12:28:40.158Z,3.23
2022-08-05T12:31:10.504Z,4.23
2022-08-05T12:33:53.104Z,2.63
2022-08-05T12:36:21.564Z,3.80
2022-08-05T12:38:54.071Z,4.07
2022-08-05T12:41:22.209Z,2.23
2022-08-05T12:44:04.064Z,2.37
2022-08-05T12:46:33.741Z,2.63
2022-08-05T12:49:13.781Z,4.27
2022-08-05T12:52:14.112Z,2.33
2022-08-05T12:54:36.701Z,2.70
2022-08-05T12:57:09.426Z,2.30
2022-08-05T12:59:46.714Z,1.47
2022-08-05T13:02:40.223Z,2.90
2022-08-05T13:05:12.547Z,2.80
2022-08-05T13:07:59.958Z,4.27
2022-08-05T13:10:32.290Z,3.77
2022-08-05T13:13:00.567Z,3.63
2022-08-05T13:15:36.128Z,2.03
2022-08-05T13:18:19.818Z,4.07
2022-08-05T13:20:50.499Z,3.67
2022-08-05T13:23:22.071Z,2.87
2022-08-05T13:25:59.616Z,4.70
2022-08-05T13:28:32.397Z,3.83
2022-08-05T13:31:11.191Z,4.50
2022-08-05T13:34:22.108Z,4.40
2022-08-05T13:36:33.401Z,4.87
2022-08-05T13:39:01.853Z,3.43
2022-08-05T13:41:37.727Z,5.17
2022-08-05T13:44:06.525Z,3.97
2022-08-05T13:47:01.658Z,4.27
2022-08-05T13:49:26.262Z,7.07
2022-08-05T13:51:57.328Z,5.17
2022-08-05T13:54:26.396Z,4.97
2022-08-05T13:56:54.942Z,4.90
2022-08-05T13:59:27.514Z,5.93
2022-08-05T14:02:00.797Z,4.30
2022-08-05T14:04:49.510Z,3.10
2022-08-05T14:07:56.453Z,4.20
2022-08-05T14:10:12.383Z,4.83
2022-08-05T14:12:42.813Z,4.83
2022-08-05T14:16:08.685Z,4.60
2022-08-05T14:18:00.966Z,3.70
2022-08-05T14:20:30.709Z,3.40
2022-08-05T14:23:00.603Z,5.27
2022-08-05T14:25:30.694Z,4.20
2022-08-05T14:27:58.913Z,4.17
2022-08-05T14:30:28.277Z,4.10
2022-08-05T14:32:58.711Z,4.70
2022-08-05T14:35:36.320Z,3.50
2022-08-05T14:38:32.216Z,3.00
2022-08-05T14:41:01.499Z,4.60
2022-08-05T14:43:57.779Z,4.67
2022-08-05T14:46:22.225Z,5.03
2022-08-05T14:48:52.448Z,4.27
2022-08-05T14:51:21.275Z,6.03
2022-08-05T14:54:26.637Z,3.70
2022-08-05T14:56:44.221Z,2.90
2022-08-05T14:59:15.191Z,1.43
2022-08-05T15:01:48.969Z,4.57
2022-08-05T15:04:20.730Z,2.23
2022-08-05T15:06:50.539Z,1.57
2022-08-05T15:09:51.998Z,1.90
2022-08-05T15:12:11.829Z,3.90
2022-08-05T15:14:49.976Z,1.77
2022-08-05T15:17:46.814Z,3.27
2022-08-05T15:20:19.071Z,4.33
2022-08-05T15:22:54.222Z,1.77
2022-08-05T15:25:51.236Z,2.03
2022-08-05T15:28:16.144Z,1.93
2022-08-05T15:30:45.863Z,1.67
2022-08-05T15:34:05.941Z,0.90
2022-08-05T15:36:04.554Z,2.63
2022-08-05T15:38:41.049Z,2.83
2022-08-05T15:41:22.192Z,1.23
2022-08-05T15:43:54.659Z,1.07
2022-08-05T15:46:24.459Z,1.80
2022-08-05T15:48:58.750Z,1.43
2022-08-05T15:52:03.838Z,2.40
2022-08-05T15:54:19.021Z,1.57
2022-08-05T15:56:48.704Z,3.90
2022-08-05T15:59:21.897Z,1.83
2022-08-05T16:01:52.392Z,1.93
2022-08-05T16:04:25.543Z,2.07
2022-08-05T16:06:55.482Z,2.83
2022-08-05T16:09:24.785Z,1.13
2022-08-05T16:11:55.023Z,2.13
2022-08-05T16:14:24.641Z,1.87
2022-08-05T16:16:54.879Z,0.70
2022-08-05T16:20:03.791Z,1.63
2022-08-05T16:22:11.202Z,1.00
2022-08-05T16:24:51.145Z,2.30
2022-08-05T16:27:47.228Z,3.10
2022-08-05T16:30:23.342Z,2.53
2022-08-05T16:32:55.265Z,0.83
2022-08-05T16:35:27.798Z,1.60
2022-08-05T16:38:15.709Z,2.60
2022-08-05T16:40:47.718Z,1.90
2022-08-05T16:43:23.496Z,4.80
2022-08-05T16:46:04.729Z,1.87
2022-08-05T16:48:41.233Z,1.83
2022-08-05T16:51:10.984Z,1.33
2022-08-05T16:54:03.853Z,1.23
2022-08-05T16:56:30.214Z,1.17
2022-08-05T16:59:00.876Z,2.10
2022-08-05T17:01:53.614Z,1.67
2022-08-05T17:04:20.315Z,0.60
2022-08-05T17:06:53.236Z,4.20
2022-08-05T17:09:23.120Z,0.80
2022-08-05T17:11:55.995Z,3.33
2022-08-05T17:14:34.217Z,1.70
2022-08-05T17:17:05.779Z,4.30
2022-08-05T17:19:34.058Z,1.17
2022-08-05T17:22:02.228Z,1.67
2022-08-05T17:24:38.795Z,1.63
2022-08-05T17:27:13.433Z,1.73
2022-08-05T17:29:47.182Z,1.40
2022-08-05T17:32:19.825Z,0.53
2022-08-05T17:34:49.335Z,2.10
2022-08-05T17:37:40.521Z,0.97
2022-08-05T17:40:10.220Z,2.23
2022-08-05T17:42:43.039Z,1.73
2022-08-05T17:45:23.051Z,0.50
2022-08-05T17:47:55.352Z,0.93
2022-08-05T17:50:28.435Z,4.23
2022-08-05T17:53:00.096Z,0.50
2022-08-05T17:55:37.376Z,1.60
2022-08-05T17:58:07.231Z,1.97
2022-08-05T18:00:44.307Z,1.07
2022-08-05T18:03:28.160Z,1.20
2022-08-05T18:06:04.651Z,1.27
2022-08-05T18:08:34.021Z,1.17
2022-08-05T18:11:03.182Z,1.37
2022-08-05T18:13:36.897Z,0.50
2022-08-05T18:16:14.331Z,0.90
2022-08-05T18:18:48.062Z,1.17
2022-08-05T18:21:21.246Z,0.73
2022-08-05T18:23:54.647Z,1.33
2022-08-05T18:26:27.482Z,1.20
2022-08-05T18:28:56.592Z,0.77
2022-08-05T18:31:33.044Z,0.60
2022-08-05T18:34:02.221Z,2.17
2022-08-05T18:36:30.304Z,1.03
2022-08-05T18:38:58.503Z,1.23
2022-08-05T18:41:56.736Z,1.43
2022-08-05T18:44:32.953Z,0.40
2022-08-05T18:47:04.580Z,1.03
2022-08-05T18:49:58.301Z,1.17
2022-08-05T18:52:35.892Z,1.80
2022-08-05T18:55:10.619Z,1.30
2022-08-05T18:57:43.618Z,2.07
2022-08-05T19:00:28.714Z,0.53
2022-08-05T19:03:03.906Z,0.93
2022-08-05T19:06:12.346Z,0.93
2022-08-05T19:08:30.431Z,2.03
2022-08-05T19:11:04.461Z,3.10
2022-08-05T19:13:35.862Z,3.20
2022-08-05T19:16:25.494Z,0.70
2022-08-05T19:18:57.197Z,1.97
2022-08-05T19:21:29.478Z,0.70
2022-08-05T19:24:07.341Z,2.33
2022-08-05T19:26:54.275Z,1.37
2022-08-05T19:29:24.319Z,1.10
2022-08-05T19:32:04.454Z,1.10
2022-08-05T19:34:34.309Z,0.80
2022-08-05T19:37:02.826Z,1.27
2022-08-05T19:39:31.926Z,0.60
2022-08-05T19:42:15.258Z,1.13
2022-08-05T19:44:44.926Z,1.93
2022-08-05T19:47:16.336Z,4.63
2022-08-05T19:49:48.023Z,3.23
2022-08-05T19:52:40.554Z,2.43
2022-08-05T19:55:07.254Z,3.07
2022-08-05T19:58:07.091Z,4.03
2022-08-05T20:00:41.739Z,3.10
2022-08-05T20:03:10.980Z,2.87
2022-08-05T20:05:43.370Z,3.97
2022-08-05T20:08:18.845Z,2.57
2022-08-05T20:10:49.806Z,2.90
2022-08-05T20:13:29.813Z,1.63
2022-08-05T20:15:59.742Z,2.50
2022-08-05T20:18:33.978Z,2.57
2022-08-05T20:21:07.137Z,5.40
2022-08-05T20:23:39.357Z,1.20
2022-08-05T20:26:18.489Z,2.07
2022-08-05T20:28:48.553Z,2.37
2022-08-05T20:31:17.148Z,1.10
2022-08-05T20:33:45.866Z,1.93
2022-08-05T20:36:17.876Z,1.97
2022-08-05T20:38:54.098Z,1.77
2022-08-05T20:41:43.847Z,3.30
2022-08-05T20:44:18.413Z,1.70
2022-08-05T20:46:48.209Z,1.40
2022-08-05T20:49:24.111Z,1.37
2022-08-05T20:51:54.554Z,1.73
2022-08-05T20:54:22.825Z,2.20
2022-08-05T20:56:52.986Z,1.07
2022-08-05T20:59:26.645Z,2.53
2022-08-05T21:01:57.939Z,1.63
2022-08-05T21:04:27.096Z,2.30
2022-08-05T21:06:56.988Z,1.53
2022-08-05T21:09:26.397Z,1.10
2022-08-05T21:12:08.226Z,1.43
2022-08-05T21:14:39.959Z,0.90
2022-08-05T21:17:08.290Z,1.80
2022-08-05T21:19:46.481Z,2.17
2022-08-05T21:22:18.578Z,2.80
2022-08-05T21:24:52.402Z,2.40
2022-08-05T21:27:24.659Z,3.33
2022-08-05T21:29:55.315Z,1.37
2022-08-05T21:32:24.431Z,3.37
2022-08-05T21:34:56.013Z,3.00
2022-08-05T21:37:41.351Z,3.47
2022-08-05T21:40:13.965Z,1.00
2022-08-05T21:42:44.901Z,2.03
2022-08-05T21:45:17.625Z,3.63
2022-08-05T21:48:06.484Z,1.60
2022-08-05T21:50:37.335Z,1.80
2022-08-05T21:53:08.465Z,1.53
2022-08-05T21:56:05.753Z,2.00
2022-08-05T21:58:33.623Z,2.53
2022-08-05T22:01:02.284Z,3.47
2022-08-05T22:03:51.773Z,2.10
2022-08-05T22:06:22.606Z,2.60
2022-08-05T22:08:54.054Z,2.07
2022-08-05T22:11:34.682Z,1.73
2022-08-05T22:14:31.452Z,2.70
2022-08-05T22:16:56.987Z,1.63
2022-08-05T22:20:02.180Z,1.77
2022-08-05T22:22:16.565Z,2.20
2022-08-05T22:25:21.357Z,1.57
2022-08-05T22:28:10.422Z,1.10
2022-08-05T22:30:55.380Z,1.63
2022-08-05T22:33:58.571Z,3.30
2022-08-05T22:36:15.225Z,2.53
2022-08-05T22:38:48.489Z,7.03
2022-08-05T22:42:05.481Z,2.20
2022-08-05T22:44:08.575Z,2.07
2022-08-05T22:46:39.827Z,1.07
2022-08-05T22:49:12.494Z,4.03
2022-08-05T22:52:04.479Z,3.03
2022-08-05T22:54:36.386Z,2.90
2022-08-05T22:57:06.341Z,2.83
2022-08-05T22:59:46.330Z,2.17
2022-08-05T23:02:18.378Z,3.77
2022-08-05T23:04:56.867Z,1.33
2022-08-05T23:07:25.049Z,3.80
2022-08-05T23:10:01.143Z,2.43
2022-08-05T23:12:33.291Z,4.10
2022-08-05T23:15:03.084Z,5.90
2022-08-05T23:17:34.514Z,1.87
2022-08-05T23:20:10.112Z,2.20
2022-08-05T23:22:47.146Z,3.00
2022-08-05T23:25:17.023Z,4.80
2022-08-05T23:28:07.743Z,2.13
2022-08-05T23:30:40.404Z,3.67
2022-08-05T23:33:16.079Z,3.33
2022-08-05T23:35:50.662Z,4.73
2022-08-05T23:38:18.969Z,4.53
2022-08-05T23:40:49.932Z,1.97
2022-08-05T23:43:25.350Z,1.40
2022-08-05T23:46:20.786Z,1.17
2022-08-05T23:49:00.235Z,2.33
2022-08-05T23:51:54.013Z,2.57
2022-08-05T23:54:25.848Z,1.20
2022-08-05T23:56:56.007Z,1.67
